Time;durP1;ratioP1;P1;durP2;ratioP2;P2;SDS_P1;SDS_P2;PMS_P1;PMS_P2;Temp;Humidity;BMP_temperature;BMP_pressure;BME280_temperature;BME280_humidity;BME280_pressure;Samples;Min_cycle;Max_cycle;Signal;HPM_P1;HPM_P2
2023/03/06 00:02:18;;;;;;;13.10;4.83;;;;;;;0.02;58.26;99252.92;1708145;84;21550;-68
2023/03/06 00:04:47;;;;;;;14.33;5.25;;;;;;;-0.01;58.29;99245.13;1708261;84;21153;-69
2023/03/06 00:07:16;;;;;;;11.90;4.37;;;;;;;-0.01;58.32;99245.13;1708512;84;21165;-69
2023/03/06 00:09:44;;;;;;;10.35;4.20;;;;;;;0.01;58.26;99244.50;1708442;84;21197;-67
2023/03/06 00:12:15;;;;;;;10.20;3.85;;;;;;;0.04;58.14;99241.50;1708229;84;21647;-68
2023/03/06 00:14:44;;;;;;;10.18;4.55;;;;;;;0.07;58.05;99244.38;1708131;84;21213;-68
2023/03/06 00:17:13;;;;;;;9.23;3.83;;;;;;;0.07;58.03;99236.30;1708363;84;21238;-66
2023/03/06 00:19:45;;;;;;;10.32;4.30;;;;;;;0.08;57.88;99229.41;1708154;84;21161;-67
2023/03/06 00:22:18;;;;;;;13.65;4.28;;;;;;;0.11;57.76;99241.20;1707828;84;21205;-68
2023/03/06 00:24:48;;;;;;;10.48;3.70;;;;;;;0.14;57.63;99240.88;1708119;84;21196;-67
2023/03/06 00:27:17;;;;;;;10.93;3.58;;;;;;;0.19;57.56;99247.13;1707943;83;21153;-67
2023/03/06 00:29:50;;;;;;;9.93;3.80;;;;;;;0.22;57.46;99250.86;1708314;84;21149;-66
2023/03/06 00:32:19;;;;;;;9.63;3.52;;;;;;;0.25;57.48;99259.45;1708268;84;21166;-68
2023/03/06 00:34:49;;;;;;;9.03;3.70;;;;;;;0.25;57.54;99261.31;1708241;83;21192;-67
2023/03/06 00:37:18;;;;;;;9.93;3.72;;;;;;;0.26;57.60;99261.66;1708159;84;21180;-68
2023/03/06 00:39:50;;;;;;;7.90;3.42;;;;;;;0.28;57.78;99259.64;1703204;83;21155;-67
2023/03/06 00:42:20;;;;;;;10.08;3.30;;;;;;;0.30;58.02;99269.25;1671086;85;21570;-67
2023/03/06 00:44:49;;;;;;;8.80;3.95;;;;;;;0.33;58.83;99271.28;1671364;86;21143;-67
2023/03/06 00:47:18;;;;;;;10.08;3.67;;;;;;;0.25;59.78;99266.70;1671423;84;21177;-67
2023/03/06 00:49:47;;;;;;;8.45;3.80;;;;;;;0.15;61.33;99279.43;1671343;84;21217;-68
2023/03/06 00:52:15;;;;;;;9.68;4.10;;;;;;;0.06;62.55;99282.57;1671344;86;21552;-67
2023/03/06 00:54:45;;;;;;;14.35;4.45;;;;;;;0.01;63.64;99275.97;1671462;86;21231;-69
2023/03/06 00:57:13;;;;;;;8.80;4.08;;;;;;;-0.07;64.95;99283.45;1665364;85;21369;-67
2023/03/06 00:59:42;;;;;;;9.95;3.70;;;;;;;-0.13;65.97;99275.52;1671637;85;21130;-67
2023/03/06 01:02:12;;;;;;;8.73;3.87;;;;;;;-0.20;67.11;99273.61;1671373;86;21205;-68
2023/03/06 01:04:43;;;;;;;12.60;3.80;;;;;;;-0.29;68.00;99275.39;1671134;85;21146;-67
2023/03/06 01:07:13;;;;;;;8.68;3.98;;;;;;;-0.33;68.88;99266.78;1671337;86;21211;-67
2023/03/06 01:09:43;;;;;;;13.18;4.17;;;;;;;-0.37;69.67;99261.87;1671394;86;21133;-66
2023/03/06 01:12:13;;;;;;;13.60;4.67;;;;;;;-0.38;70.24;99264.22;1671176;84;21154;-67
2023/03/06 01:14:41;;;;;;;12.10;4.42;;;;;;;-0.40;70.69;99267.06;1671297;85;21249;-67
2023/03/06 01:17:10;;;;;;;16.48;4.83;;;;;;;-0.40;71.24;99267.56;1671096;84;21162;-68
2023/03/06 01:19:39;;;;;;;6.45;2.98;;;;;;;-0.41;71.75;99263.19;1671108;86;21655;-66
2023/03/06 01:22:09;;;;;;;8.20;3.15;;;;;;;-0.43;72.20;99259.30;1671152;85;21161;-67
2023/03/06 01:24:39;;;;;;;6.50;3.10;;;;;;;-0.46;72.64;99254.23;1671294;86;21770;-67
2023/03/06 01:27:08;;;;;;;6.45;2.50;;;;;;;-0.48;73.02;99245.97;1671542;85;21214;-66
2023/03/06 01:29:37;;;;;;;9.25;2.95;;;;;;;-0.49;73.46;99249.16;1671292;85;21219;-67
2023/03/06 01:32:07;;;;;;;5.65;2.75;;;;;;;-0.53;74.03;99241.06;1671365;85;21190;-68
2023/03/06 01:34:37;;;;;;;9.63;3.95;;;;;;;-0.57;74.38;99251.78;1671326;85;21134;-68
2023/03/06 01:37:06;;;;;;;8.33;2.75;;;;;;;-0.60;74.70;99242.69;1671471;85;21168;-67
2023/03/06 01:39:36;;;;;;;7.08;2.87;;;;;;;-0.61;75.09;99240.99;1670354;84;21605;-66
2023/03/06 01:42:06;;;;;;;7.03;3.15;;;;;;;-0.60;75.31;99235.95;1665044;85;21193;-65
2023/03/06 01:44:35;;;;;;;7.15;2.87;;;;;;;-0.60;75.57;99235.95;1664912;86;21138;-67
2023/03/06 01:47:05;;;;;;;4.55;2.40;;;;;;;-0.59;75.77;99225.55;1670138;86;21185;-66
2023/03/06 01:49:37;;;;;;;4.85;2.60;;;;;;;-0.59;75.97;99230.08;1664752;86;21628;-67
2023/03/06 01:52:15;;;;;;;9.20;3.08;;;;;;;-0.58;76.25;99225.04;1669991;85;21153;-66
2023/03/06 01:54:49;;;;;;;8.80;2.45;;;;;;;-0.59;76.46;99224.70;1636709;85;21126;-69
2023/03/06 01:57:23;;;;;;;7.55;3.00;;;;;;;-0.59;76.67;99230.92;1665172;86;21174;-65
2023/03/06 02:00:03;;;;;;;6.33;2.45;;;;;;;-0.57;76.88;99225.39;1670115;85;21193;-67
2023/03/06 02:02:34;;;;;;;6.03;2.50;;;;;;;-0.56;77.08;99231.11;1663921;85;21189;-66
2023/03/06 02:05:03;;;;;;;5.17;2.58;;;;;;;-0.55;77.35;99224.73;1670154;86;21130;-66
2023/03/06 02:07:32;;;;;;;11.38;2.83;;;;;;;-0.56;77.52;99229.27;1664875;86;21618;-66
2023/03/06 02:10:03;;;;;;;7.55;3.12;;;;;;;-0.57;77.59;99225.39;1670262;85;21138;-66
2023/03/06 02:12:32;;;;;;;7.50;3.15;;;;;;;-0.59;77.72;99216.13;1664844;85;21181;-65
2023/03/06 02:15:02;;;;;;;9.83;3.47;;;;;;;-0.60;77.93;99222.51;1670053;86;21193;-67
2023/03/06 02:17:33;;;;;;;11.10;3.27;;;;;;;-0.60;78.13;99226.55;1664809;85;21148;-65
2023/03/06 02:20:15;;;;;;;8.80;3.30;;;;;;;-0.62;78.29;99221.82;1670028;85;21188;-65
2023/03/06 02:23:11;;;;;;;10.50;3.47;;;;;;;-0.61;78.65;99218.63;1658978;86;21231;-65
2023/03/06 02:25:46;;;;;;;10.50;3.52;;;;;;;-0.61;78.91;99220.82;1670332;86;21154;-67
2023/03/06 02:28:19;;;;;;;9.68;3.77;;;;;;;-0.58;79.12;99214.28;1641438;87;21182;-66
2023/03/06 02:30:50;;;;;;;9.05;3.80;;;;;;;-0.55;79.26;99212.62;1665312;86;21175;-66
2023/03/06 02:33:24;;;;;;;8.90;3.62;;;;;;;-0.57;79.38;99211.44;1664987;86;21295;-66
2023/03/06 02:36:01;;;;;;;9.65;3.65;;;;;;;-0.59;79.37;99204.52;1670205;85;21169;-65
2023/03/06 02:38:42;;;;;;;9.77;3.33;;;;;;;-0.62;79.56;99212.91;1662362;86;21198;-68
2023/03/06 02:41:12;;;;;;;7.78;3.30;;;;;;;-0.64;79.68;99206.34;1668471;86;21207;-67
2023/03/06 02:43:42;;;;;;;9.80;3.55;;;;;;;-0.64;79.74;99209.03;1668920;86;21593;-67
2023/03/06 02:46:11;;;;;;;8.78;3.65;;;;;;;-0.65;79.86;99206.84;1669024;86;21154;-65
2023/03/06 02:48:40;;;;;;;8.00;3.42;;;;;;;-0.66;79.92;99205.12;1668795;86;21134;-65
2023/03/06 02:51:11;;;;;;;10.38;3.80;;;;;;;-0.66;79.99;99201.58;1668637;86;21154;-65
2023/03/06 02:53:41;;;;;;;12.95;3.70;;;;;;;-0.65;80.11;99208.68;1668578;86;21142;-66
2023/03/06 02:56:11;;;;;;;10.35;3.92;;;;;;;-0.64;80.27;99204.99;1668582;86;21609;-66
2023/03/06 02:58:44;;;;;;;13.08;4.35;;;;;;;-0.64;80.41;99204.99;1668541;86;21659;-65
2023/03/06 03:01:15;;;;;;;9.20;3.83;;;;;;;-0.67;80.46;99204.77;1668678;85;21205;-66
2023/03/06 03:03:45;;;;;;;9.38;3.60;;;;;;;-0.67;80.57;99207.46;1668582;86;21154;-65
2023/03/06 03:06:15;;;;;;;9.73;4.05;;;;;;;-0.67;80.65;99209.30;1668615;86;21197;-64
2023/03/06 03:08:45;;;;;;;9.78;4.30;;;;;;;-0.70;80.72;99200.20;1668871;86;21197;-65
2023/03/06 03:11:15;;;;;;;8.83;3.20;;;;;;;-0.71;80.86;99209.27;1668594;86;21634;-65
2023/03/06 03:13:47;;;;;;;9.58;3.47;;;;;;;-0.71;81.06;99204.73;1668584;85;21142;-65
2023/03/06 03:16:17;;;;;;;10.05;3.30;;;;;;;-0.71;81.27;99206.08;1668257;85;21194;-64
2023/03/06 03:18:49;;;;;;;9.53;3.25;;;;;;;-0.68;81.37;99200.39;1668577;86;21546;-66
2023/03/06 03:21:20;;;;;;;6.12;2.87;;;;;;;-0.67;81.47;99199.39;1668850;85;21169;-65
2023/03/06 03:23:50;;;;;;;6.97;2.98;;;;;;;-0.66;81.55;99202.93;1668855;86;21225;-63
2023/03/06 03:26:20;;;;;;;7.28;3.33;;;;;;;-0.65;81.71;99202.80;1668383;86;21198;-66
2023/03/06 03:28:51;;;;;;;6.03;2.98;;;;;;;-0.63;81.75;99205.34;1668047;86;21181;-64
2023/03/06 03:31:20;;;;;;;8.80;3.20;;;;;;;-0.62;81.76;99204.84;1668593;86;21165;-65
2023/03/06 03:33:51;;;;;;;7.08;3.22;;;;;;;-0.63;81.84;99209.88;1668705;86;21165;-64
2023/03/06 03:36:20;;;;;;;5.92;3.10;;;;;;;-0.66;81.94;99202.93;1668967;86;21170;-66
2023/03/06 03:38:50;;;;;;;9.53;3.95;;;;;;;-0.68;81.99;99203.58;1669008;84;21158;-64
2023/03/06 03:41:25;;;;;;;7.53;3.58;;;;;;;-0.68;82.08;99204.92;1671166;84;21169;-65
2023/03/06 03:43:53;;;;;;;7.75;3.45;;;;;;;-0.65;82.26;99208.68;1671253;86;21582;-66
2023/03/06 03:46:25;;;;;;;7.85;3.62;;;;;;;-0.63;82.32;99206.68;1671491;86;21636;-65
2023/03/06 03:48:55;;;;;;;9.60;4.12;;;;;;;-0.63;82.28;99207.18;1671357;85;21209;-64
2023/03/06 03:51:24;;;;;;;7.22;3.60;;;;;;;-0.66;82.38;99208.30;1671101;86;21241;-66
2023/03/06 03:53:56;;;;;;;10.93;4.70;;;;;;;-0.64;82.46;99215.75;1671528;86;21205;-65
2023/03/06 03:56:27;;;;;;;10.28;4.40;;;;;;;-0.63;82.54;99215.25;1671303;86;21211;-65
2023/03/06 03:59:01;;;;;;;11.50;4.53;;;;;;;-0.63;82.59;99214.75;1671322;86;21259;-63
2023/03/06 04:01:32;;;;;;;11.95;4.97;;;;;;;-0.61;82.72;99213.25;1671008;86;21181;-65
2023/03/06 04:04:01;;;;;;;12.68;4.42;;;;;;;-0.61;82.78;99217.28;1671151;86;21327;-65
2023/03/06 04:06:30;;;;;;;11.57;4.67;;;;;;;-0.60;82.86;99217.13;1671489;84;21166;-65
2023/03/06 04:09:00;;;;;;;11.48;4.15;;;;;;;-0.60;82.90;99221.66;1671249;86;21700;-65
2023/03/06 04:11:30;;;;;;;11.35;4.30;;;;;;;-0.60;82.94;99221.16;1671412;86;21189;-66
2023/03/06 04:14:02;;;;;;;10.70;5.08;;;;;;;-0.61;82.86;99219.47;1671299;86;21213;-65
2023/03/06 04:16:32;;;;;;;12.35;5.33;;;;;;;-0.60;82.93;99216.28;1671136;86;21610;-65
2023/03/06 04:19:02;;;;;;;10.53;5.35;;;;;;;-0.59;82.98;99218.82;1671140;86;21158;-66
2023/03/06 04:21:34;;;;;;;10.78;5.37;;;;;;;-0.60;82.91;99222.51;1670921;86;21594;-66
2023/03/06 04:24:06;;;;;;;12.30;5.60;;;;;;;-0.61;82.94;99225.36;1671386;85;21233;-65
2023/03/06 04:26:35;;;;;;;12.50;5.50;;;;;;;-0.61;82.94;99230.23;1671196;86;21689;-66
2023/03/06 04:29:05;;;;;;;12.98;5.25;;;;;;;-0.62;83.05;99231.23;1671264;86;21158;-64
2023/03/06 04:31:36;;;;;;;11.18;5.45;;;;;;;-0.62;83.07;99237.95;1671315;84;21150;-64
2023/03/06 04:34:05;;;;;;;9.48;5.17;;;;;;;-0.61;83.02;99238.80;1671491;86;21237;-66
2023/03/06 04:36:36;;;;;;;13.10;5.17;;;;;;;-0.63;83.10;99228.20;1671412;86;21185;-66
2023/03/06 04:39:08;;;;;;;10.63;4.95;;;;;;;-0.63;83.16;99236.27;1670998;85;21130;-66
2023/03/06 04:41:39;;;;;;;12.63;4.92;;;;;;;-0.62;83.16;99240.64;1664926;86;21635;-66
2023/03/06 04:44:10;;;;;;;13.10;5.15;;;;;;;-0.64;82.98;99241.30;1665249;86;21286;-65
2023/03/06 04:46:39;;;;;;;13.05;5.67;;;;;;;-0.69;82.95;99235.02;1665099;85;21118;-66
2023/03/06 04:49:08;;;;;;;12.50;4.60;;;;;;;-0.70;83.07;99237.86;1670146;85;21193;-67
2023/03/06 04:51:39;;;;;;;12.43;4.37;;;;;;;-0.67;83.19;99240.23;1665196;85;21218;-66
2023/03/06 04:54:07;;;;;;;14.15;4.70;;;;;;;-0.64;83.19;99238.61;1669874;85;21173;-66
2023/03/06 04:56:36;;;;;;;15.32;9.35;;;;;;;-0.64;83.16;99238.61;1665253;86;21574;-68
2023/03/06 04:59:07;;;;;;;11.78;4.92;;;;;;;-0.64;83.23;99243.99;1664936;86;21197;-67
2023/03/06 05:01:37;;;;;;;10.70;4.62;;;;;;;-0.63;83.29;99246.19;1636525;86;21158;-66
2023/03/06 05:04:08;;;;;;;8.98;4.33;;;;;;;-0.62;83.39;99250.06;1670013;85;21158;-65
2023/03/06 05:06:36;;;;;;;7.37;3.90;;;;;;;-0.59;83.37;99255.13;1664855;86;21632;-66
2023/03/06 05:09:07;;;;;;;11.28;4.20;;;;;;;-0.56;83.37;99259.36;1665346;85;21119;-66
2023/03/06 05:11:38;;;;;;;10.32;4.30;;;;;;;-0.55;83.39;99255.17;1664973;86;21186;-66
2023/03/06 05:14:07;;;;;;;10.23;4.55;;;;;;;-0.53;83.32;99257.20;1670025;85;21656;-65
2023/03/06 05:16:37;;;;;;;11.83;4.55;;;;;;;-0.53;83.25;99265.27;1664903;86;21221;-65
2023/03/06 05:19:06;;;;;;;9.70;4.78;;;;;;;-0.53;83.19;99263.92;1664887;86;21174;-66
2023/03/06 05:21:35;;;;;;;12.05;5.03;;;;;;;-0.54;83.21;99262.73;1670280;86;21233;-64
2023/03/06 05:24:07;;;;;;;10.10;5.37;;;;;;;-0.53;83.26;99263.92;1665022;86;21217;-67
2023/03/06 05:26:36;;;;;;;13.48;5.40;;;;;;;-0.51;83.35;99265.96;1664944;86;21197;-66
2023/03/06 05:29:05;;;;;;;16.12;6.58;;;;;;;-0.49;83.42;99265.31;1664877;85;21648;-64
2023/03/06 05:31:36;;;;;;;16.35;5.47;;;;;;;-0.49;83.51;99272.53;1670424;86;21141;-67
2023/03/06 05:34:07;;;;;;;12.03;5.75;;;;;;;-0.45;83.67;99278.80;1664905;85;21142;-65
2023/03/06 05:36:36;;;;;;;14.28;5.50;;;;;;;-0.41;83.73;99278.83;1664961;85;21650;-65
2023/03/06 05:39:08;;;;;;;17.37;5.75;;;;;;;-0.38;83.77;99279.86;1613587;89;21831;-66
2023/03/06 05:41:37;;;;;;;11.25;6.30;;;;;;;-0.32;83.83;99283.77;1610729;89;21613;-64
2023/03/06 05:44:06;;;;;;;14.05;5.85;;;;;;;-0.29;83.78;99283.46;1642493;87;21232;-66
2023/03/06 05:46:37;;;;;;;18.70;5.65;;;;;;;-0.27;83.77;99286.00;1642180;87;21585;-65
2023/03/06 05:49:06;;;;;;;14.30;7.00;;;;;;;-0.25;83.79;99289.38;1642193;87;21213;-65
2023/03/06 05:51:36;;;;;;;16.93;7.65;;;;;;;-0.23;83.73;99290.06;1642434;87;21605;-66
2023/03/06 05:54:05;;;;;;;17.62;8.20;;;;;;;-0.22;83.67;99279.14;1642217;87;21212;-66
2023/03/06 05:56:35;;;;;;;22.75;8.50;;;;;;;-0.20;83.60;99282.53;1642488;87;21157;-64
2023/03/06 05:59:05;;;;;;;18.95;8.05;;;;;;;-0.16;83.56;99271.78;1642423;87;21145;-66
2023/03/06 06:01:35;;;;;;;22.67;8.73;;;;;;;-0.13;83.41;99283.59;1642492;87;21129;-65
2023/03/06 06:04:04;;;;;;;19.07;8.25;;;;;;;-0.11;83.29;99284.27;1678736;84;21167;-66
2023/03/06 06:06:34;;;;;;;21.50;9.65;;;;;;;-0.07;83.25;99285.65;1679299;85;21200;-66
2023/03/06 06:09:05;;;;;;;17.87;9.13;;;;;;;-0.04;83.10;99281.30;1679344;85;21360;-65
2023/03/06 06:11:34;;;;;;;19.77;8.20;;;;;;;-0.02;82.92;99285.18;1650726;87;21138;-66
2023/03/06 06:14:04;;;;;;;18.57;7.55;;;;;;;-0.01;82.75;99291.75;1679246;85;21223;-65
2023/03/06 06:16:34;;;;;;;18.35;7.62;;;;;;;0.01;82.53;99301.05;1679245;84;21679;-65
2023/03/06 06:19:06;;;;;;;14.30;6.53;;;;;;;0.02;82.47;99304.09;1679280;84;21233;-65
2023/03/06 06:21:35;;;;;;;15.43;6.45;;;;;;;0.02;82.29;99306.78;1650282;87;21237;-66
2023/03/06 06:24:05;;;;;;;15.58;6.92;;;;;;;0.01;82.10;99314.52;1678936;84;21217;-65
2023/03/06 06:26:35;;;;;;;16.62;7.42;;;;;;;0.03;82.12;99323.28;1679098;84;21142;-66
2023/03/06 06:29:05;;;;;;;18.82;7.62;;;;;;;0.04;82.06;99321.43;1679188;84;21193;-65
2023/03/06 06:31:37;;;;;;;16.37;7.47;;;;;;;0.07;82.08;99326.50;1650582;87;21271;-65
2023/03/06 06:34:09;;;;;;;10.80;5.80;;;;;;;0.11;82.05;99330.07;1679629;85;21164;-65
2023/03/06 06:36:37;;;;;;;9.70;5.60;;;;;;;0.12;81.96;99320.98;1679312;85;21202;-67
2023/03/06 06:39:08;;;;;;;12.98;5.97;;;;;;;0.14;81.82;99339.18;1698814;84;21587;-64
2023/03/06 06:41:37;;;;;;;15.60;6.30;;;;;;;0.17;81.68;99334.83;1646911;86;21561;-66
2023/03/06 06:44:10;;;;;;;13.28;5.62;;;;;;;0.16;81.48;99334.48;1661640;85;21625;-66
2023/03/06 06:46:40;;;;;;;14.30;5.70;;;;;;;0.18;81.20;99338.36;1670359;85;21606;-66
2023/03/06 06:49:12;;;;;;;10.08;5.37;;;;;;;0.16;81.06;99343.91;1661715;85;21142;-64
2023/03/06 06:51:41;;;;;;;14.65;5.80;;;;;;;0.18;81.13;99346.44;1664947;86;21194;-65
2023/03/06 06:54:11;;;;;;;18.15;8.78;;;;;;;0.20;81.06;99345.28;1670157;86;21570;-65
2023/03/06 06:56:41;;;;;;;14.70;7.10;;;;;;;0.23;81.04;99346.81;1664886;85;21107;-67
2023/03/06 06:59:11;;;;;;;11.90;5.30;;;;;;;0.29;80.96;99351.07;1670073;85;21154;-65
2023/03/06 07:01:43;;;;;;;12.20;6.37;;;;;;;0.33;80.78;99352.10;1664976;85;21127;-66
2023/03/06 07:04:14;;;;;;;12.82;5.35;;;;;;;0.35;80.50;99353.63;1670279;85;21637;-66
2023/03/06 07:06:46;;;;;;;14.23;6.17;;;;;;;0.39;80.16;99359.05;1608438;88;21218;-70
2023/03/06 07:09:15;;;;;;;17.37;7.30;;;;;;;0.39;79.95;99356.86;1645112;87;21188;-67
2023/03/06 07:11:44;;;;;;;16.87;7.50;;;;;;;0.43;79.79;99363.11;1645514;86;21213;-69
2023/03/06 07:14:16;;;;;;;21.95;10.75;;;;;;;0.45;79.34;99367.84;1645368;86;21161;-73
2023/03/06 07:16:45;;;;;;;17.57;7.95;;;;;;;0.45;78.89;99370.53;1645224;86;21589;-67
2023/03/06 07:19:20;;;;;;;15.95;6.95;;;;;;;0.46;78.29;99368.69;1645189;87;21597;-68
2023/03/06 07:21:52;;;;;;;19.32;7.60;;;;;;;0.47;78.00;99370.38;1645107;86;21202;-72
2023/03/06 07:24:21;;;;;;;21.97;8.48;;;;;;;0.51;77.71;99370.41;1660177;84;21115;-69
2023/03/06 07:26:50;;;;;;;19.23;6.53;;;;;;;0.58;77.72;99371.46;1703939;84;21605;-71
2023/03/06 07:29:19;;;;;;;14.10;5.75;;;;;;;0.65;77.58;99379.28;1704034;83;21127;-68
2023/03/06 07:31:48;;;;;;;14.45;6.80;;;;;;;0.73;77.26;99373.94;1704133;83;21150;-67
2023/03/06 07:34:19;;;;;;;18.70;8.03;;;;;;;0.81;76.85;99378.53;1703866;83;21519;-67
2023/03/06 07:36:49;;;;;;;16.57;6.58;;;;;;;0.86;76.13;99379.73;1704100;83;21550;-67
2023/03/06 07:39:18;;;;;;;28.27;11.53;;;;;;;0.85;75.44;99382.09;1704006;83;21573;-66
2023/03/06 07:41:48;;;;;;;31.45;12.85;;;;;;;0.83;74.54;99388.14;1719339;82;21134;-68
2023/03/06 07:44:18;;;;;;;15.53;6.78;;;;;;;0.88;74.71;99393.90;1723873;82;21178;-69
2023/03/06 07:46:47;;;;;;;14.00;5.50;;;;;;;0.93;74.92;99385.33;1686611;85;21181;-73
2023/03/06 07:49:16;;;;;;;9.88;4.58;;;;;;;0.98;74.36;99391.59;1687049;85;21159;-75
2023/03/06 07:51:45;;;;;;;9.03;4.22;;;;;;;0.97;73.05;99400.69;1686838;85;21148;-71
2023/03/06 07:54:14;;;;;;;7.85;4.15;;;;;;;0.91;72.31;99400.32;1686857;85;21119;-72
2023/03/06 07:56:42;;;;;;;12.10;4.92;;;;;;;0.88;72.04;99400.64;1687018;85;21119;-70
2023/03/06 07:59:12;;;;;;;14.53;6.62;;;;;;;0.88;72.21;99404.69;1686865;85;21167;-69
2023/03/06 08:01:41;;;;;;;16.67;7.20;;;;;;;0.88;72.14;99412.77;1686714;85;21139;-71
2023/03/06 08:04:11;;;;;;;16.05;6.95;;;;;;;0.82;71.92;99411.22;1686664;85;21144;-70
2023/03/06 08:06:40;;;;;;;11.68;5.33;;;;;;;0.76;72.58;99414.05;1686705;85;21123;-74
2023/03/06 08:09:10;;;;;;;10.68;4.75;;;;;;;0.73;72.52;99418.41;1663385;85;21199;-71
2023/03/06 08:11:40;;;;;;;7.72;4.03;;;;;;;0.73;72.38;99417.06;1663735;86;21152;-69
2023/03/06 08:14:10;;;;;;;9.68;5.15;;;;;;;0.71;72.36;99416.38;1687094;85;21485;-72
2023/03/06 08:16:41;;;;;;;10.53;5.00;;;;;;;0.74;72.67;99420.11;1686659;85;21502;-72
2023/03/06 08:19:10;;;;;;;13.20;5.35;;;;;;;0.88;73.08;99417.32;1686792;85;21116;-72
2023/03/06 08:21:40;;;;;;;14.50;5.75;;;;;;;1.08;72.87;99423.33;1686799;85;21575;-70
2023/03/06 08:24:12;;;;;;;12.37;5.33;;;;;;;1.25;72.56;99421.05;1686819;85;21123;-72
2023/03/06 08:26:41;;;;;;;11.20;5.00;;;;;;;1.40;72.23;99422.14;1686825;85;21128;-67
2023/03/06 08:29:11;;;;;;;12.07;5.53;;;;;;;1.50;71.54;99430.95;1687115;85;21147;-69
2023/03/06 08:31:44;;;;;;;11.80;5.30;;;;;;;1.52;71.09;99428.94;1686917;85;21140;-71
2023/03/06 08:34:19;;;;;;;12.78;5.58;;;;;;;1.49;70.35;99434.66;1686699;85;21552;-68
2023/03/06 08:36:49;;;;;;;10.03;4.58;;;;;;;1.45;70.33;99440.05;1686483;85;21586;-69
2023/03/06 08:39:19;;;;;;;9.73;4.00;;;;;;;1.39;70.35;99435.30;1686741;85;21116;-69
2023/03/06 08:41:48;;;;;;;8.35;3.75;;;;;;;1.38;70.53;99442.20;1676078;85;21161;-69
2023/03/06 08:44:17;;;;;;;6.12;3.47;;;;;;;1.27;69.27;99436.06;1665028;85;21179;-68
2023/03/06 08:46:46;;;;;;;7.62;3.50;;;;;;;1.20;69.32;99440.92;1664982;86;21618;-69
2023/03/06 08:49:15;;;;;;;8.15;3.08;;;;;;;1.21;69.64;99445.30;1670101;85;21229;-69
2023/03/06 08:51:45;;;;;;;6.00;3.42;;;;;;;1.24;69.02;99447.17;1665139;86;21209;-67
2023/03/06 08:54:15;;;;;;;8.43;3.35;;;;;;;1.28;68.56;99451.24;1666983;84;21126;-68
2023/03/06 08:56:50;;;;;;;6.47;3.35;;;;;;;1.38;68.91;99444.91;1664342;86;21635;-69
2023/03/06 08:59:17;;;;;;;6.85;3.40;;;;;;;1.46;68.81;99444.44;1666849;85;21107;-67
2023/03/06 09:01:46;;;;;;;7.62;3.83;;;;;;;1.56;68.90;99453.24;1663935;86;21586;-67
2023/03/06 09:04:17;;;;;;;9.95;4.08;;;;;;;1.64;68.66;99455.62;1683413;85;21143;-67
2023/03/06 09:06:47;;;;;;;8.43;3.85;;;;;;;1.70;68.55;99463.91;1667041;86;21139;-66
2023/03/06 09:09:18;;;;;;;6.72;3.17;;;;;;;1.78;68.84;99456.34;1661228;86;21317;-66
2023/03/06 09:11:52;;;;;;;6.30;3.17;;;;;;;1.84;68.05;99465.14;1684005;84;21553;-65
2023/03/06 09:14:21;;;;;;;7.30;3.37;;;;;;;1.81;66.57;99471.71;1683893;85;21215;-63
2023/03/06 09:16:49;;;;;;;7.50;3.10;;;;;;;1.78;66.77;99475.25;1683894;85;21156;-64
2023/03/06 09:19:20;;;;;;;7.97;3.60;;;;;;;1.76;65.57;99469.16;1684088;84;21164;-65
2023/03/06 09:21:56;;;;;;;9.30;3.72;;;;;;;1.75;66.23;99476.42;1683959;85;21180;-64
2023/03/06 09:24:32;;;;;;;7.30;3.90;;;;;;;1.80;66.51;99475.92;1669823;84;21624;-67
2023/03/06 09:27:03;;;;;;;6.53;3.50;;;;;;;1.80;66.13;99484.03;1670130;85;21125;-65
2023/03/06 09:29:32;;;;;;;10.80;3.58;;;;;;;1.81;65.91;99482.52;1670125;86;21118;-63
2023/03/06 09:32:02;;;;;;;7.87;3.33;;;;;;;1.80;66.05;99482.17;1670005;86;21161;-64
2023/03/06 09:34:32;;;;;;;12.10;3.22;;;;;;;1.85;65.91;99484.38;1623804;86;21676;-66
2023/03/06 09:37:02;;;;;;;12.85;3.70;;;;;;;1.91;65.70;99481.87;1669962;84;21566;-64
2023/03/06 09:39:31;;;;;;;12.82;3.12;;;;;;;1.99;64.89;99482.92;1670244;86;21141;-63
2023/03/06 09:42:00;;;;;;;10.50;3.12;;;;;;;2.03;64.84;99490.53;1680905;84;21618;-65
2023/03/06 09:44:31;;;;;;;6.47;2.80;;;;;;;2.08;64.19;99487.34;1688525;85;21290;-63
2023/03/06 09:47:28;;;;;;;17.67;3.98;;;;;;;2.07;61.47;99487.84;1688935;84;21153;-63
2023/03/06 09:50:23;;;;;;;5.85;2.62;;;;;;;2.01;61.81;99477.70;1688577;83;21139;-68
2023/03/06 09:53:44;;;;;;;11.30;3.50;;;;;;;2.10;62.26;99483.96;1688946;85;21142;-66
2023/03/06 09:56:19;;;;;;;9.70;3.27;;;;;;;2.19;61.89;99480.27;1671688;86;21178;-67
2023/03/06 09:58:54;;;;;;;11.78;3.58;;;;;;;2.34;62.02;99479.09;1671497;85;21187;-63
2023/03/06 10:01:30;;;;;;;6.42;3.10;;;;;;;2.45;61.82;99485.52;1563133;89;21192;-63
2023/03/06 10:04:33;;;;;;;5.93;2.43;;;;;;;2.53;60.97;99476.91;1602659;89;21635;-64
2023/03/06 10:07:13;;;;;;;18.70;3.80;;;;;;;2.59;59.77;99469.98;1602400;89;21175;-66
2023/03/06 10:09:50;;;;;;;6.90;2.87;;;;;;;2.56;58.86;99478.42;1595422;90;21164;-66
2023/03/06 10:12:34;;;;;;;16.05;3.42;;;;;;;2.56;58.66;99477.08;1615397;89;21733;-70
2023/03/06 10:15:20;;;;;;;13.53;2.58;;;;;;;2.63;58.86;99480.83;1594459;89;21222;-65
2023/03/06 10:18:06;;;;;;;7.03;2.35;;;;;;;2.70;56.74;99480.99;1564080;90;22145;-68
2023/03/06 10:20:52;;;;;;;10.65;2.35;;;;;;;2.69;55.33;99477.44;1564119;92;21168;-66
2023/03/06 10:23:43;;;;;;;14.90;2.90;;;;;;;2.84;60.59;99479.80;1563399;92;21590;-65
2023/03/06 10:26:25;;;;;;;13.30;3.02;;;;;;;3.02;57.21;99467.42;1614843;88;21117;-68
2023/03/06 10:29:17;;;;;;;10.32;2.70;;;;;;;3.09;55.15;99477.05;1630622;88;21386;-63
2023/03/06 10:31:52;;;;;;;7.55;2.50;;;;;;;3.11;54.20;99467.73;1630701;88;21153;-63
2023/03/06 10:34:25;;;;;;;13.00;3.20;;;;;;;3.10;52.73;99470.61;1630667;88;21173;-62
2023/03/06 10:36:57;;;;;;;6.85;2.47;;;;;;;3.09;54.67;99472.48;1630951;88;21161;-62
2023/03/06 10:39:29;;;;;;;25.10;3.92;;;;;;;3.21;53.95;99468.05;1630938;88;21577;-67
2023/03/06 10:42:00;;;;;;;8.38;3.02;;;;;;;3.24;52.38;99460.42;1609078;88;21234;-66
2023/03/06 10:44:30;;;;;;;7.03;2.75;;;;;;;3.20;52.05;99461.80;1630420;88;21148;-65
2023/03/06 10:47:01;;;;;;;10.48;2.58;;;;;;;3.20;52.74;99467.20;1630373;88;21273;-62
2023/03/06 10:49:35;;;;;;;6.83;2.20;;;;;;;3.23;52.66;99458.73;1575516;88;21241;-67
2023/03/06 10:52:14;;;;;;;5.40;2.00;;;;;;;3.24;51.95;99469.90;1630082;88;21247;-66
2023/03/06 10:54:45;;;;;;;7.83;2.42;;;;;;;3.19;50.43;99457.40;1583203;89;21189;-65
2023/03/06 10:57:29;;;;;;;20.30;3.70;;;;;;;3.10;50.87;99466.56;1602821;89;21807;-67
2023/03/06 11:00:07;;;;;;;5.12;2.30;;;;;;;3.10;51.30;99463.84;1549400;91;21176;-66
2023/03/06 11:02:39;;;;;;;14.35;3.77;;;;;;;3.09;51.54;99471.63;1601173;86;21568;-65
2023/03/06 11:05:19;;;;;;;6.62;2.70;;;;;;;2.98;51.00;99471.99;1660078;85;21235;-65
2023/03/06 11:07:54;;;;;;;5.20;2.45;;;;;;;2.84;51.53;99470.33;1625489;88;21131;-65
2023/03/06 11:10:24;;;;;;;14.83;2.80;;;;;;;2.72;51.33;99467.63;1638893;87;21287;-64
2023/03/06 11:13:26;;;;;;;14.20;2.83;;;;;;;2.62;51.19;99465.61;1644295;85;21191;-66
2023/03/06 11:16:21;;;;;;;8.18;2.30;;;;;;;2.61;51.33;99469.33;1663159;85;21175;-67
2023/03/06 11:19:04;;;;;;;6.83;1.75;;;;;;;2.59;49.67;99462.38;1636454;86;21263;-63
2023/03/06 11:21:35;;;;;;;13.05;2.10;;;;;;;2.52;49.27;99470.31;1659211;86;21211;-62
2023/03/06 11:24:19;;;;;;;9.23;2.05;;;;;;;2.50;49.30;99466.43;1638332;86;21310;-64
2023/03/06 11:27:01;;;;;;;10.28;3.72;;;;;;;2.51;49.37;99459.16;1663341;85;21819;-64
2023/03/06 11:29:44;;;;;;;8.33;2.15;;;;;;;2.51;48.42;99472.69;1637443;86;21159;-65
2023/03/06 11:32:29;;;;;;;4.45;1.92;;;;;;;2.47;48.10;99474.87;1637195;86;21196;-66
2023/03/06 11:35:04;;;;;;;7.12;2.33;;;;;;;2.44;47.67;99468.97;1663941;86;21144;-64
2023/03/06 11:37:58;;;;;;;8.25;2.20;;;;;;;2.38;47.95;99467.78;1663931;85;21124;-64
2023/03/06 11:40:44;;;;;;;;;;;;;;;2.38;48.44;99470.48;1666587;86;21195;-63
2023/03/06 11:43:31;;;;;;;10.58;2.75;;;;;;;2.45;48.40;99470.66;1656444;85;20165;-64
2023/03/06 11:46:05;;;;;;;;;;;;;;;2.50;47.91;99468.29;1655011;86;21137;-63
2023/03/06 11:48:41;;;;;;;8.75;2.60;;;;;;;2.54;47.64;99473.70;1652559;86;20221;-62
2023/03/06 11:51:35;;;;;;;5.28;2.17;;;;;;;2.54;47.62;99465.59;1652623;86;21267;-66
2023/03/06 11:54:05;;;;;;;4.60;1.87;;;;;;;2.56;48.18;99463.55;1611131;88;21210;-63
2023/03/06 11:56:58;;;;;;;5.45;2.15;;;;;;;2.63;46.92;99472.71;1628883;87;21566;-65
2023/03/06 11:59:50;;;;;;;9.58;2.33;;;;;;;2.64;46.13;99465.45;1643550;87;21197;-66